Wallaceton, PA (16876)

10:42 PM EST on February 22, 2017 (GMT -0500)
West Decatur | | Change Station

Elev 1795 ft 40.97 °N, 78.31 °W | Updated 9 minutes ago

Mostly Cloudy
Mostly Cloudy
46.0 °F
Feels Like 46 °F
N
1.1
Wind Variable Wind from SSW

Today
High -- | Low -- °F
--% Chance of Precip.
Yesterday
High -- | Low -- °F
Precip. -- in
Pressure 29.87 in
Visibility 10.0 miles
Clouds Clear
Windchill 46 °F
Dew Point 38 °F
Humidity 73%
Rainfall 0.00 in
Snow Depth Not available.
6:57 AM 5:56 PM
Waning Crescent, 13% visible
METAR KUNV 230335Z AUTO 00000KT 10SM CLR 08/04 A2987 RMK AO2 T00780035
Pressure 29.87 in
Visibility 10.0 miles
Clouds Clear
Windchill 46 °F
Dew Point 38 °F
Humidity 73%
Rainfall 0.00 in
Snow Depth Not available.
6:57 AM 5:56 PM
Waning Crescent, 13% visible
METAR KUNV 230335Z AUTO 00000KT 10SM CLR 08/04 A2987 RMK AO2 T00780035

Get Your Daily Forecast Email!

Thanks for signing up!

Be on the lookout for a verification email in your inbox.

You'll start receiving the daily forecast at 8 AM.

×

10-Day Weather Forecast

Almanac

Astronomy

Feb. 22, 2017 Rise Set
Actual Time
Civil Twilight
Nautical Twilight
Astronomical Twilight
Moon
Length of Visible Light
Length of Day
Tomorrow will be .
, % of the Moon is Illuminated

Today's Extremes

State Highs State Lows

Community

WunderPhotos

Upload Photos

1,962,540 photos uploaded!

WunderBlog® & News

Nearby

Air Quality

  Air Quality AQ Index Pollutant
Not available.

Snow Depth

Station Depth Elevation

Earthquake Activity

City Distance Mag. Time & Date
Minimum magnitude displayed is 2.5.

Coastal Water Temperatures

Place Temperature

Stations

Nearby Weather Stations

Station Location Temp. Windchill Dew Point Humidity Wind Precip. Elev Updated Type
                   

Watches & Warnings

There are currently no watches in effect.